sensor_id;sensor_type;location;lat;lon;timestamp;P1;durP1;ratioP1;P2;durP2;ratioP2
11638;SDS011;5875;35.940;126.892;2023-12-20T00:02:17;2.43;;;2.27;;
11638;SDS011;5875;35.940;126.892;2023-12-20T00:04:44;2.93;;;2.37;;
11638;SDS011;5875;35.940;126.892;2023-12-20T00:07:12;1.50;;;1.20;;
11638;SDS011;5875;35.940;126.892;2023-12-20T00:09:39;2.60;;;2.43;;
11638;SDS011;5875;35.940;126.892;2023-12-20T00:12:06;1.03;;;1.03;;
11638;SDS011;5875;35.940;126.892;2023-12-20T00:14:33;4.03;;;1.80;;
11638;SDS011;5875;35.940;126.892;2023-12-20T00:17:00;4.63;;;3.73;;
11638;SDS011;5875;35.940;126.892;2023-12-20T00:19:27;4.17;;;3.77;;
11638;SDS011;5875;35.940;126.892;2023-12-20T00:21:54;4.80;;;3.90;;
11638;SDS011;5875;35.940;126.892;2023-12-20T00:24:24;5.67;;;4.27;;
11638;SDS011;5875;35.940;126.892;2023-12-20T00:26:51;6.33;;;3.20;;
11638;SDS011;5875;35.940;126.892;2023-12-20T00:29:21;4.93;;;3.77;;
11638;SDS011;5875;35.940;126.892;2023-12-20T00:31:48;6.03;;;3.53;;
11638;SDS011;5875;35.940;126.892;2023-12-20T00:34:16;5.57;;;4.77;;
11638;SDS011;5875;35.940;126.892;2023-12-20T00:36:43;3.77;;;3.43;;
11638;SDS011;5875;35.940;126.892;2023-12-20T00:39:10;3.93;;;3.17;;
11638;SDS011;5875;35.940;126.892;2023-12-20T00:41:37;7.07;;;4.83;;
11638;SDS011;5875;35.940;126.892;2023-12-20T00:44:04;3.17;;;2.97;;
11638;SDS011;5875;35.940;126.892;2023-12-20T00:46:31;5.30;;;3.80;;
11638;SDS011;5875;35.940;126.892;2023-12-20T00:48:58;3.60;;;3.23;;
11638;SDS011;5875;35.940;126.892;2023-12-20T00:51:25;8.93;;;5.63;;
11638;SDS011;5875;35.940;126.892;2023-12-20T00:53:52;4.27;;;3.30;;
11638;SDS011;5875;35.940;126.892;2023-12-20T00:56:20;5.90;;;4.53;;
11638;SDS011;5875;35.940;126.892;2023-12-20T00:58:47;6.53;;;4.43;;
11638;SDS011;5875;35.940;126.892;2023-12-20T01:01:15;7.30;;;3.97;;
11638;SDS011;5875;35.940;126.892;2023-12-20T01:03:42;3.97;;;3.03;;
11638;SDS011;5875;35.940;126.892;2023-12-20T01:06:09;6.83;;;4.77;;
11638;SDS011;5875;35.940;126.892;2023-12-20T01:08:37;5.07;;;4.07;;
11638;SDS011;5875;35.940;126.892;2023-12-20T01:11:04;7.43;;;6.07;;
11638;SDS011;5875;35.940;126.892;2023-12-20T01:13:31;5.43;;;4.93;;
11638;SDS011;5875;35.940;126.892;2023-12-20T01:15:59;4.77;;;4.20;;
11638;SDS011;5875;35.940;126.892;2023-12-20T01:18:26;6.47;;;5.03;;
11638;SDS011;5875;35.940;126.892;2023-12-20T01:20:54;4.47;;;3.90;;
11638;SDS011;5875;35.940;126.892;2023-12-20T01:23:21;5.87;;;4.90;;
11638;SDS011;5875;35.940;126.892;2023-12-20T01:25:48;5.00;;;4.27;;
11638;SDS011;5875;35.940;126.892;2023-12-20T01:28:15;4.67;;;4.27;;
11638;SDS011;5875;35.940;126.892;2023-12-20T01:30:42;13.30;;;5.03;;
11638;SDS011;5875;35.940;126.892;2023-12-20T01:33:09;4.33;;;3.93;;
11638;SDS011;5875;35.940;126.892;2023-12-20T01:35:37;4.20;;;3.73;;
11638;SDS011;5875;35.940;126.892;2023-12-20T01:38:04;3.83;;;3.60;;
11638;SDS011;5875;35.940;126.892;2023-12-20T01:40:31;4.07;;;3.77;;
11638;SDS011;5875;35.940;126.892;2023-12-20T01:42:59;10.00;;;6.43;;
11638;SDS011;5875;35.940;126.892;2023-12-20T01:45:27;5.27;;;4.73;;
11638;SDS011;5875;35.940;126.892;2023-12-20T01:47:55;5.50;;;4.07;;
11638;SDS011;5875;35.940;126.892;2023-12-20T01:50:23;5.00;;;3.97;;
11638;SDS011;5875;35.940;126.892;2023-12-20T01:52:51;9.77;;;5.83;;
11638;SDS011;5875;35.940;126.892;2023-12-20T01:55:21;6.07;;;4.33;;
11638;SDS011;5875;35.940;126.892;2023-12-20T01:57:48;6.53;;;4.67;;
11638;SDS011;5875;35.940;126.892;2023-12-20T02:00:16;5.50;;;4.47;;
11638;SDS011;5875;35.940;126.892;2023-12-20T02:02:45;4.10;;;3.70;;
11638;SDS011;5875;35.940;126.892;2023-12-20T02:05:13;6.83;;;5.77;;
11638;SDS011;5875;35.940;126.892;2023-12-20T02:07:40;4.90;;;4.50;;
11638;SDS011;5875;35.940;126.892;2023-12-20T02:10:07;5.63;;;4.90;;
11638;SDS011;5875;35.940;126.892;2023-12-20T02:12:34;5.90;;;5.40;;
11638;SDS011;5875;35.940;126.892;2023-12-20T02:15:01;7.70;;;4.20;;
11638;SDS011;5875;35.940;126.892;2023-12-20T02:17:29;8.10;;;3.87;;
11638;SDS011;5875;35.940;126.892;2023-12-20T02:19:57;12.27;;;5.80;;
11638;SDS011;5875;35.940;126.892;2023-12-20T02:22:24;4.83;;;4.40;;
11638;SDS011;5875;35.940;126.892;2023-12-20T02:24:52;4.83;;;4.43;;
11638;SDS011;5875;35.940;126.892;2023-12-20T02:27:19;7.33;;;6.07;;
11638;SDS011;5875;35.940;126.892;2023-12-20T02:29:47;8.23;;;6.93;;
11638;SDS011;5875;35.940;126.892;2023-12-20T02:32:16;4.50;;;3.60;;
11638;SDS011;5875;35.940;126.892;2023-12-20T02:34:46;4.00;;;3.20;;
11638;SDS011;5875;35.940;126.892;2023-12-20T02:37:14;9.13;;;5.00;;
11638;SDS011;5875;35.940;126.892;2023-12-20T02:39:44;3.67;;;3.33;;
11638;SDS011;5875;35.940;126.892;2023-12-20T02:42:11;6.07;;;5.47;;
11638;SDS011;5875;35.940;126.892;2023-12-20T02:44:38;6.80;;;4.33;;
11638;SDS011;5875;35.940;126.892;2023-12-20T02:47:05;1.55;;;1.40;;
11638;SDS011;5875;35.940;126.892;2023-12-20T02:49:32;4.20;;;2.50;;
11638;SDS011;5875;35.940;126.892;2023-12-20T02:51:59;1.63;;;1.63;;
11638;SDS011;5875;35.940;126.892;2023-12-20T02:54:26;2.03;;;1.83;;
11638;SDS011;5875;35.940;126.892;2023-12-20T02:56:53;1.20;;;1.17;;
11638;SDS011;5875;35.940;126.892;2023-12-20T02:59:21;2.67;;;2.47;;
11638;SDS011;5875;35.940;126.892;2023-12-20T03:01:48;2.37;;;2.17;;
11638;SDS011;5875;35.940;126.892;2023-12-20T03:04:15;2.50;;;2.30;;
11638;SDS011;5875;35.940;126.892;2023-12-20T03:06:45;2.27;;;2.07;;
11638;SDS011;5875;35.940;126.892;2023-12-20T03:09:14;3.10;;;2.00;;
11638;SDS011;5875;35.940;126.892;2023-12-20T03:11:41;1.93;;;1.83;;
11638;SDS011;5875;35.940;126.892;2023-12-20T03:14:09;1.47;;;1.37;;
11638;SDS011;5875;35.940;126.892;2023-12-20T03:16:36;3.07;;;2.10;;
11638;SDS011;5875;35.940;126.892;2023-12-20T03:19:03;1.40;;;1.30;;
11638;SDS011;5875;35.940;126.892;2023-12-20T03:21:30;3.30;;;2.77;;
11638;SDS011;5875;35.940;126.892;2023-12-20T03:23:57;2.97;;;2.77;;
11638;SDS011;5875;35.940;126.892;2023-12-20T03:26:24;5.93;;;2.67;;
11638;SDS011;5875;35.940;126.892;2023-12-20T03:28:51;5.00;;;2.87;;
11638;SDS011;5875;35.940;126.892;2023-12-20T03:31:21;0.70;;;0.70;;
11638;SDS011;5875;35.940;126.892;2023-12-20T03:33:48;3.23;;;1.90;;
11638;SDS011;5875;35.940;126.892;2023-12-20T03:36:19;2.03;;;1.40;;
11638;SDS011;5875;35.940;126.892;2023-12-20T03:38:46;2.67;;;2.40;;
11638;SDS011;5875;35.940;126.892;2023-12-20T03:41:14;3.07;;;1.67;;
11638;SDS011;5875;35.940;126.892;2023-12-20T03:43:41;3.30;;;2.73;;
11638;SDS011;5875;35.940;126.892;2023-12-20T03:46:09;0.77;;;0.77;;
11638;SDS011;5875;35.940;126.892;2023-12-20T03:48:36;1.37;;;1.27;;
11638;SDS011;5875;35.940;126.892;2023-12-20T03:51:03;1.50;;;1.40;;
11638;SDS011;5875;35.940;126.892;2023-12-20T03:53:30;1.20;;;1.20;;
11638;SDS011;5875;35.940;126.892;2023-12-20T03:55:57;1.20;;;1.20;;
11638;SDS011;5875;35.940;126.892;2023-12-20T03:58:25;0.60;;;0.60;;
11638;SDS011;5875;35.940;126.892;2023-12-20T04:00:55;1.40;;;1.30;;
11638;SDS011;5875;35.940;126.892;2023-12-20T04:03:22;1.00;;;1.00;;
11638;SDS011;5875;35.940;126.892;2023-12-20T04:05:49;3.67;;;1.77;;
11638;SDS011;5875;35.940;126.892;2023-12-20T04:08:16;1.67;;;1.47;;
11638;SDS011;5875;35.940;126.892;2023-12-20T04:10:43;3.70;;;2.27;;
11638;SDS011;5875;35.940;126.892;2023-12-20T04:13:13;2.10;;;1.73;;
11638;SDS011;5875;35.940;126.892;2023-12-20T04:15:40;2.27;;;1.43;;
11638;SDS011;5875;35.940;126.892;2023-12-20T04:18:07;0.80;;;0.80;;
11638;SDS011;5875;35.940;126.892;2023-12-20T04:20:34;1.03;;;0.93;;
11638;SDS011;5875;35.940;126.892;2023-12-20T04:23:01;2.17;;;2.07;;
11638;SDS011;5875;35.940;126.892;2023-12-20T04:25:28;2.33;;;1.87;;
11638;SDS011;5875;35.940;126.892;2023-12-20T04:27:55;3.00;;;1.20;;
11638;SDS011;5875;35.940;126.892;2023-12-20T04:30:25;1.00;;;0.90;;
11638;SDS011;5875;35.940;126.892;2023-12-20T04:32:52;0.93;;;0.93;;
11638;SDS011;5875;35.940;126.892;2023-12-20T04:35:19;0.87;;;0.87;;
11638;SDS011;5875;35.940;126.892;2023-12-20T04:37:46;1.07;;;1.07;;
11638;SDS011;5875;35.940;126.892;2023-12-20T04:40:15;1.77;;;1.63;;
11638;SDS011;5875;35.940;126.892;2023-12-20T04:42:42;0.67;;;0.43;;
11638;SDS011;5875;35.940;126.892;2023-12-20T04:45:12;0.60;;;0.60;;
11638;SDS011;5875;35.940;126.892;2023-12-20T04:47:41;1.00;;;1.00;;
11638;SDS011;5875;35.940;126.892;2023-12-20T04:50:08;1.30;;;1.20;;
11638;SDS011;5875;35.940;126.892;2023-12-20T04:52:36;0.83;;;0.80;;
11638;SDS011;5875;35.940;126.892;2023-12-20T04:55:03;1.20;;;1.10;;
11638;SDS011;5875;35.940;126.892;2023-12-20T04:57:31;2.73;;;0.97;;
11638;SDS011;5875;35.940;126.892;2023-12-20T04:59:58;2.20;;;1.83;;
11638;SDS011;5875;35.940;126.892;2023-12-20T05:02:25;1.23;;;1.00;;
11638;SDS011;5875;35.940;126.892;2023-12-20T05:04:52;3.27;;;2.93;;
11638;SDS011;5875;35.940;126.892;2023-12-20T05:07:19;1.07;;;0.90;;
11638;SDS011;5875;35.940;126.892;2023-12-20T05:09:46;3.57;;;1.67;;
11638;SDS011;5875;35.940;126.892;2023-12-20T05:12:14;9.63;;;4.97;;
11638;SDS011;5875;35.940;126.892;2023-12-20T05:14:41;0.87;;;0.60;;
11638;SDS011;5875;35.940;126.892;2023-12-20T05:17:08;1.40;;;1.30;;
11638;SDS011;5875;35.940;126.892;2023-12-20T05:19:35;1.43;;;1.37;;
11638;SDS011;5875;35.940;126.892;2023-12-20T05:22:03;1.67;;;1.57;;
11638;SDS011;5875;35.940;126.892;2023-12-20T05:24:33;1.73;;;1.33;;
11638;SDS011;5875;35.940;126.892;2023-12-20T05:27:00;1.07;;;1.03;;
11638;SDS011;5875;35.940;126.892;2023-12-20T05:29:27;2.47;;;2.27;;
11638;SDS011;5875;35.940;126.892;2023-12-20T05:31:54;2.10;;;1.97;;
11638;SDS011;5875;35.940;126.892;2023-12-20T05:34:21;1.40;;;1.30;;
11638;SDS011;5875;35.940;126.892;2023-12-20T05:36:48;1.60;;;1.50;;
11638;SDS011;5875;35.940;126.892;2023-12-20T05:39:15;7.20;;;2.07;;
11638;SDS011;5875;35.940;126.892;2023-12-20T05:41:42;1.47;;;1.10;;
11638;SDS011;5875;35.940;126.892;2023-12-20T05:44:13;1.77;;;1.63;;
11638;SDS011;5875;35.940;126.892;2023-12-20T05:46:40;2.83;;;2.20;;
11638;SDS011;5875;35.940;126.892;2023-12-20T05:49:10;1.40;;;1.30;;
11638;SDS011;5875;35.940;126.892;2023-12-20T05:51:37;3.40;;;1.07;;
11638;SDS011;5875;35.940;126.892;2023-12-20T05:54:04;1.80;;;1.60;;
11638;SDS011;5875;35.940;126.892;2023-12-20T05:56:31;2.83;;;2.03;;
11638;SDS011;5875;35.940;126.892;2023-12-20T05:58:58;0.80;;;0.80;;
11638;SDS011;5875;35.940;126.892;2023-12-20T06:01:25;2.63;;;1.60;;
11638;SDS011;5875;35.940;126.892;2023-12-20T06:03:52;2.27;;;1.67;;
11638;SDS011;5875;35.940;126.892;2023-12-20T06:06:19;1.07;;;1.00;;
11638;SDS011;5875;35.940;126.892;2023-12-20T06:08:46;0.60;;;0.60;;
11638;SDS011;5875;35.940;126.892;2023-12-20T06:11:14;1.60;;;1.03;;
11638;SDS011;5875;35.940;126.892;2023-12-20T06:13:41;0.90;;;0.90;;
11638;SDS011;5875;35.940;126.892;2023-12-20T06:16:11;1.53;;;1.50;;
11638;SDS011;5875;35.940;126.892;2023-12-20T06:18:38;3.83;;;1.73;;
11638;SDS011;5875;35.940;126.892;2023-12-20T06:21:05;2.00;;;1.40;;
11638;SDS011;5875;35.940;126.892;2023-12-20T06:23:33;1.40;;;1.17;;
11638;SDS011;5875;35.940;126.892;2023-12-20T06:26:03;0.93;;;0.67;;
11638;SDS011;5875;35.940;126.892;2023-12-20T06:28:30;0.33;;;0.33;;
11638;SDS011;5875;35.940;126.892;2023-12-20T06:30:57;0.50;;;0.50;;
11638;SDS011;5875;35.940;126.892;2023-12-20T06:33:26;1.73;;;1.10;;
11638;SDS011;5875;35.940;126.892;2023-12-20T06:35:53;4.50;;;1.67;;
11638;SDS011;5875;35.940;126.892;2023-12-20T06:38:20;1.30;;;1.07;;
11638;SDS011;5875;35.940;126.892;2023-12-20T06:40:47;1.17;;;0.83;;
11638;SDS011;5875;35.940;126.892;2023-12-20T06:43:14;1.33;;;1.20;;
11638;SDS011;5875;35.940;126.892;2023-12-20T06:45:41;1.70;;;1.47;;
11638;SDS011;5875;35.940;126.892;2023-12-20T06:48:09;1.10;;;1.03;;
11638;SDS011;5875;35.940;126.892;2023-12-20T06:50:38;2.77;;;1.03;;
11638;SDS011;5875;35.940;126.892;2023-12-20T06:53:06;1.13;;;1.13;;
11638;SDS011;5875;35.940;126.892;2023-12-20T06:55:34;0.70;;;0.70;;
11638;SDS011;5875;35.940;126.892;2023-12-20T06:58:03;0.10;;;0.10;;
11638;SDS011;5875;35.940;126.892;2023-12-20T07:00:30;1.07;;;1.07;;
11638;SDS011;5875;35.940;126.892;2023-12-20T07:02:58;0.63;;;0.63;;
11638;SDS011;5875;35.940;126.892;2023-12-20T07:05:25;1.07;;;0.93;;
11638;SDS011;5875;35.940;126.892;2023-12-20T07:07:52;2.47;;;1.57;;
11638;SDS011;5875;35.940;126.892;2023-12-20T07:10:19;0.67;;;0.67;;
11638;SDS011;5875;35.940;126.892;2023-12-20T07:12:49;1.23;;;0.63;;
11638;SDS011;5875;35.940;126.892;2023-12-20T07:15:21;0.17;;;0.17;;
11638;SDS011;5875;35.940;126.892;2023-12-20T07:17:48;0.10;;;0.10;;
11638;SDS011;5875;35.940;126.892;2023-12-20T07:20:15;1.10;;;0.87;;
11638;SDS011;5875;35.940;126.892;2023-12-20T07:22:42;0.30;;;0.30;;
11638;SDS011;5875;35.940;126.892;2023-12-20T07:25:10;0.77;;;0.77;;
11638;SDS011;5875;35.940;126.892;2023-12-20T07:27:39;0.30;;;0.30;;
11638;SDS011;5875;35.940;126.892;2023-12-20T07:30:07;0.20;;;0.20;;
11638;SDS011;5875;35.940;126.892;2023-12-20T07:32:34;0.30;;;0.30;;
11638;SDS011;5875;35.940;126.892;2023-12-20T07:35:01;2.33;;;0.83;;
11638;SDS011;5875;35.940;126.892;2023-12-20T07:37:28;0.90;;;0.90;;
11638;SDS011;5875;35.940;126.892;2023-12-20T07:39:56;0.73;;;0.73;;
11638;SDS011;5875;35.940;126.892;2023-12-20T07:42:23;0.30;;;0.30;;
11638;SDS011;5875;35.940;126.892;2023-12-20T07:44:50;0.23;;;0.23;;
11638;SDS011;5875;35.940;126.892;2023-12-20T07:47:17;0.83;;;0.83;;
11638;SDS011;5875;35.940;126.892;2023-12-20T07:49:48;1.80;;;1.70;;
11638;SDS011;5875;35.940;126.892;2023-12-20T07:52:17;0.10;;;0.10;;
11638;SDS011;5875;35.940;126.892;2023-12-20T07:54:45;0.20;;;0.20;;
11638;SDS011;5875;35.940;126.892;2023-12-20T07:57:12;0.87;;;0.87;;
11638;SDS011;5875;35.940;126.892;2023-12-20T07:59:39;4.50;;;4.10;;
11638;SDS011;5875;35.940;126.892;2023-12-20T08:02:06;1.40;;;1.27;;
11638;SDS011;5875;35.940;126.892;2023-12-20T08:04:36;0.20;;;0.20;;
11638;SDS011;5875;35.940;126.892;2023-12-20T08:07:03;0.03;;;0.03;;
11638;SDS011;5875;35.940;126.892;2023-12-20T08:09:33;4.70;;;3.90;;
11638;SDS011;5875;35.940;126.892;2023-12-20T08:12:02;0.93;;;0.53;;
11638;SDS011;5875;35.940;126.892;2023-12-20T08:14:29;2.10;;;2.00;;
11638;SDS011;5875;35.940;126.892;2023-12-20T08:16:57;0.83;;;0.83;;
11638;SDS011;5875;35.940;126.892;2023-12-20T08:19:24;0.87;;;0.87;;
11638;SDS011;5875;35.940;126.892;2023-12-20T08:21:51;0.10;;;0.10;;
11638;SDS011;5875;35.940;126.892;2023-12-20T08:24:18;0.37;;;0.37;;
11638;SDS011;5875;35.940;126.892;2023-12-20T08:26:45;0.10;;;0.10;;
11638;SDS011;5875;35.940;126.892;2023-12-20T08:29:13;0.17;;;0.17;;
11638;SDS011;5875;35.940;126.892;2023-12-20T08:31:40;0.10;;;0.10;;
11638;SDS011;5875;35.940;126.892;2023-12-20T08:34:07;0.10;;;0.10;;
11638;SDS011;5875;35.940;126.892;2023-12-20T08:36:34;0.10;;;0.10;;
11638;SDS011;5875;35.940;126.892;2023-12-20T08:39:01;0.60;;;0.57;;
11638;SDS011;5875;35.940;126.892;2023-12-20T08:41:31;0.20;;;0.20;;
11638;SDS011;5875;35.940;126.892;2023-12-20T08:43:58;0.00;;;0.00;;
11638;SDS011;5875;35.940;126.892;2023-12-20T08:46:26;0.77;;;0.60;;
11638;SDS011;5875;35.940;126.892;2023-12-20T08:48:53;0.10;;;0.10;;
11638;SDS011;5875;35.940;126.892;2023-12-20T08:51:22;0.17;;;0.13;;
11638;SDS011;5875;35.940;126.892;2023-12-20T08:53:51;1.07;;;0.77;;
11638;SDS011;5875;35.940;126.892;2023-12-20T08:56:18;0.33;;;0.30;;
11638;SDS011;5875;35.940;126.892;2023-12-20T08:58:48;0.00;;;0.00;;
11638;SDS011;5875;35.940;126.892;2023-12-20T09:01:18;0.50;;;0.50;;
11638;SDS011;5875;35.940;126.892;2023-12-20T09:03:45;0.10;;;0.10;;
11638;SDS011;5875;35.940;126.892;2023-12-20T09:06:12;0.20;;;0.20;;
11638;SDS011;5875;35.940;126.892;2023-12-20T09:08:39;0.17;;;0.17;;
11638;SDS011;5875;35.940;126.892;2023-12-20T09:11:06;0.17;;;0.17;;
11638;SDS011;5875;35.940;126.892;2023-12-20T09:13:34;0.93;;;0.63;;
11638;SDS011;5875;35.940;126.892;2023-12-20T09:16:01;0.20;;;0.20;;
11638;SDS011;5875;35.940;126.892;2023-12-20T09:18:28;0.00;;;0.00;;
11638;SDS011;5875;35.940;126.892;2023-12-20T09:20:55;1.40;;;0.33;;
11638;SDS011;5875;35.940;126.892;2023-12-20T09:23:25;0.00;;;0.00;;
11638;SDS011;5875;35.940;126.892;2023-12-20T09:25:55;0.53;;;0.53;;
11638;SDS011;5875;35.940;126.892;2023-12-20T09:28:25;0.83;;;0.83;;
11638;SDS011;5875;35.940;126.892;2023-12-20T09:30:52;0.20;;;0.20;;
11638;SDS011;5875;35.940;126.892;2023-12-20T09:33:19;0.30;;;0.30;;
11638;SDS011;5875;35.940;126.892;2023-12-20T09:35:46;0.10;;;0.10;;
11638;SDS011;5875;35.940;126.892;2023-12-20T09:38:13;0.37;;;0.37;;
11638;SDS011;5875;35.940;126.892;2023-12-20T09:40:42;0.53;;;0.53;;
11638;SDS011;5875;35.940;126.892;2023-12-20T09:43:16;0.13;;;0.13;;
11638;SDS011;5875;35.940;126.892;2023-12-20T09:45:48;0.13;;;0.13;;
11638;SDS011;5875;35.940;126.892;2023-12-20T09:48:19;0.10;;;0.10;;
11638;SDS011;5875;35.940;126.892;2023-12-20T09:50:46;0.10;;;0.10;;
11638;SDS011;5875;35.940;126.892;2023-12-20T09:53:16;0.13;;;0.13;;
11638;SDS011;5875;35.940;126.892;2023-12-20T09:55:45;0.00;;;0.00;;
11638;SDS011;5875;35.940;126.892;2023-12-20T09:58:12;0.10;;;0.10;;
11638;SDS011;5875;35.940;126.892;2023-12-20T10:00:39;0.53;;;0.53;;
11638;SDS011;5875;35.940;126.892;2023-12-20T10:03:07;0.00;;;0.00;;
11638;SDS011;5875;35.940;126.892;2023-12-20T10:05:35;0.20;;;0.20;;
11638;SDS011;5875;35.940;126.892;2023-12-20T10:08:03;0.83;;;0.73;;
11638;SDS011;5875;35.940;126.892;2023-12-20T10:10:30;1.13;;;0.40;;
11638;SDS011;5875;35.940;126.892;2023-12-20T10:13:04;0.10;;;0.10;;
11638;SDS011;5875;35.940;126.892;2023-12-20T10:15:33;0.50;;;0.50;;
11638;SDS011;5875;35.940;126.892;2023-12-20T10:18:03;0.07;;;0.07;;
11638;SDS011;5875;35.940;126.892;2023-12-20T10:20:31;0.10;;;0.10;;
11638;SDS011;5875;35.940;126.892;2023-12-20T10:22:59;0.33;;;0.33;;
11638;SDS011;5875;35.940;126.892;2023-12-20T10:25:27;0.10;;;0.10;;
11638;SDS011;5875;35.940;126.892;2023-12-20T10:30:37;0.70;;;0.70;;
11638;SDS011;5875;35.940;126.892;2023-12-20T10:33:06;0.20;;;0.20;;
11638;SDS011;5875;35.940;126.892;2023-12-20T10:35:34;0.57;;;0.57;;
11638;SDS011;5875;35.940;126.892;2023-12-20T10:38:05;0.10;;;0.10;;
11638;SDS011;5875;35.940;126.892;2023-12-20T10:40:35;0.73;;;0.73;;
11638;SDS011;5875;35.940;126.892;2023-12-20T10:43:03;0.10;;;0.10;;
11638;SDS011;5875;35.940;126.892;2023-12-20T10:45:31;0.27;;;0.27;;
11638;SDS011;5875;35.940;126.892;2023-12-20T10:47:58;0.40;;;0.40;;
11638;SDS011;5875;35.940;126.892;2023-12-20T10:50:26;0.40;;;0.40;;
11638;SDS011;5875;35.940;126.892;2023-12-20T10:52:55;0.00;;;0.00;;
11638;SDS011;5875;35.940;126.892;2023-12-20T10:55:23;0.00;;;0.00;;
11638;SDS011;5875;35.940;126.892;2023-12-20T10:57:51;0.63;;;0.63;;
11638;SDS011;5875;35.940;126.892;2023-12-20T11:00:20;0.00;;;0.00;;
11638;SDS011;5875;35.940;126.892;2023-12-20T11:02:52;0.10;;;0.10;;
11638;SDS011;5875;35.940;126.892;2023-12-20T11:08:13;0.60;;;0.60;;
11638;SDS011;5875;35.940;126.892;2023-12-20T11:11:02;0.40;;;0.40;;
11638;SDS011;5875;35.940;126.892;2023-12-20T11:13:58;1.70;;;1.07;;
11638;SDS011;5875;35.940;126.892;2023-12-20T11:16:31;0.20;;;0.20;;
11638;SDS011;5875;35.940;126.892;2023-12-20T11:19:04;0.73;;;0.53;;
11638;SDS011;5875;35.940;126.892;2023-12-20T11:21:31;0.30;;;0.30;;
11638;SDS011;5875;35.940;126.892;2023-12-20T11:24:01;0.67;;;0.67;;
11638;SDS011;5875;35.940;126.892;2023-12-20T11:26:29;0.10;;;0.03;;
11638;SDS011;5875;35.940;126.892;2023-12-20T11:32:03;0.53;;;0.53;;
11638;SDS011;5875;35.940;126.892;2023-12-20T11:35:00;0.10;;;0.10;;
11638;SDS011;5875;35.940;126.892;2023-12-20T11:37:37;0.00;;;0.00;;
11638;SDS011;5875;35.940;126.892;2023-12-20T11:40:13;0.00;;;0.00;;
11638;SDS011;5875;35.940;126.892;2023-12-20T11:42:42;0.10;;;0.10;;
11638;SDS011;5875;35.940;126.892;2023-12-20T11:45:13;0.10;;;0.10;;
11638;SDS011;5875;35.940;126.892;2023-12-20T11:47:42;0.20;;;0.20;;
11638;SDS011;5875;35.940;126.892;2023-12-20T11:50:11;0.10;;;0.10;;
11638;SDS011;5875;35.940;126.892;2023-12-20T11:52:38;1.80;;;1.23;;
11638;SDS011;5875;35.940;126.892;2023-12-20T11:55:06;0.20;;;0.20;;
11638;SDS011;5875;35.940;126.892;2023-12-20T11:57:33;0.03;;;0.03;;
11638;SDS011;5875;35.940;126.892;2023-12-20T12:00:02;0.00;;;0.00;;
11638;SDS011;5875;35.940;126.892;2023-12-20T12:02:30;0.00;;;0.00;;
11638;SDS011;5875;35.940;126.892;2023-12-20T12:04:57;0.00;;;0.00;;
11638;SDS011;5875;35.940;126.892;2023-12-20T12:07:26;0.10;;;0.10;;
11638;SDS011;5875;35.940;126.892;2023-12-20T12:09:53;0.50;;;0.50;;
11638;SDS011;5875;35.940;126.892;2023-12-20T12:12:20;0.00;;;0.00;;
11638;SDS011;5875;35.940;126.892;2023-12-20T12:14:47;0.43;;;0.43;;
11638;SDS011;5875;35.940;126.892;2023-12-20T12:17:18;0.20;;;0.20;;
11638;SDS011;5875;35.940;126.892;2023-12-20T12:19:45;0.30;;;0.30;;
11638;SDS011;5875;35.940;126.892;2023-12-20T12:22:12;0.63;;;0.63;;
11638;SDS011;5875;35.940;126.892;2023-12-20T12:24:45;0.20;;;0.20;;
11638;SDS011;5875;35.940;126.892;2023-12-20T12:27:13;0.13;;;0.13;;
11638;SDS011;5875;35.940;126.892;2023-12-20T12:29:41;0.00;;;0.00;;
11638;SDS011;5875;35.940;126.892;2023-12-20T12:32:28;0.10;;;0.10;;
11638;SDS011;5875;35.940;126.892;2023-12-20T12:34:55;0.00;;;0.00;;
11638;SDS011;5875;35.940;126.892;2023-12-20T12:37:22;0.30;;;0.23;;
11638;SDS011;5875;35.940;126.892;2023-12-20T12:39:53;0.17;;;0.17;;
11638;SDS011;5875;35.940;126.892;2023-12-20T12:42:23;0.10;;;0.10;;
11638;SDS011;5875;35.940;126.892;2023-12-20T12:44:54;0.00;;;0.00;;
11638;SDS011;5875;35.940;126.892;2023-12-20T12:47:22;0.10;;;0.10;;
11638;SDS011;5875;35.940;126.892;2023-12-20T12:49:52;0.00;;;0.00;;
11638;SDS011;5875;35.940;126.892;2023-12-20T12:52:19;0.20;;;0.20;;
11638;SDS011;5875;35.940;126.892;2023-12-20T12:54:47;0.20;;;0.20;;
11638;SDS011;5875;35.940;126.892;2023-12-20T12:57:14;0.53;;;0.53;;
11638;SDS011;5875;35.940;126.892;2023-12-20T12:59:43;0.10;;;0.10;;
11638;SDS011;5875;35.940;126.892;2023-12-20T13:02:14;0.10;;;0.10;;
11638;SDS011;5875;35.940;126.892;2023-12-20T13:04:42;3.90;;;0.97;;
11638;SDS011;5875;35.940;126.892;2023-12-20T13:07:09;0.53;;;0.43;;
11638;SDS011;5875;35.940;126.892;2023-12-20T13:09:37;0.00;;;0.00;;
11638;SDS011;5875;35.940;126.892;2023-12-20T13:12:05;0.00;;;0.00;;
11638;SDS011;5875;35.940;126.892;2023-12-20T13:14:33;5.23;;;1.70;;
11638;SDS011;5875;35.940;126.892;2023-12-20T13:17:03;0.37;;;0.37;;
11638;SDS011;5875;35.940;126.892;2023-12-20T13:19:31;0.63;;;0.33;;
11638;SDS011;5875;35.940;126.892;2023-12-20T13:21:58;1.50;;;1.40;;
11638;SDS011;5875;35.940;126.892;2023-12-20T13:24:25;0.20;;;0.20;;
11638;SDS011;5875;35.940;126.892;2023-12-20T13:26:53;1.13;;;1.03;;
11638;SDS011;5875;35.940;126.892;2023-12-20T13:29:20;0.10;;;0.10;;
11638;SDS011;5875;35.940;126.892;2023-12-20T13:31:47;0.10;;;0.10;;
11638;SDS011;5875;35.940;126.892;2023-12-20T13:34:14;0.77;;;0.77;;
11638;SDS011;5875;35.940;126.892;2023-12-20T13:36:43;0.40;;;0.40;;
11638;SDS011;5875;35.940;126.892;2023-12-20T13:39:15;4.60;;;2.90;;
11638;SDS011;5875;35.940;126.892;2023-12-20T13:41:42;0.30;;;0.30;;
11638;SDS011;5875;35.940;126.892;2023-12-20T13:44:09;0.00;;;0.00;;
11638;SDS011;5875;35.940;126.892;2023-12-20T13:46:37;0.00;;;0.00;;
11638;SDS011;5875;35.940;126.892;2023-12-20T13:49:06;0.20;;;0.20;;
11638;SDS011;5875;35.940;126.892;2023-12-20T13:51:33;0.10;;;0.10;;
11638;SDS011;5875;35.940;126.892;2023-12-20T13:54:01;0.10;;;0.10;;
11638;SDS011;5875;35.940;126.892;2023-12-20T13:56:28;1.33;;;1.13;;
11638;SDS011;5875;35.940;126.892;2023-12-20T13:58:55;0.53;;;0.53;;
11638;SDS011;5875;35.940;126.892;2023-12-20T14:01:23;0.40;;;0.40;;
11638;SDS011;5875;35.940;126.892;2023-12-20T14:03:50;0.23;;;0.23;;
11638;SDS011;5875;35.940;126.892;2023-12-20T14:06:17;0.00;;;0.00;;
11638;SDS011;5875;35.940;126.892;2023-12-20T14:08:44;0.00;;;0.00;;
11638;SDS011;5875;35.940;126.892;2023-12-20T14:11:11;0.10;;;0.10;;
11638;SDS011;5875;35.940;126.892;2023-12-20T14:13:41;0.20;;;0.20;;
11638;SDS011;5875;35.940;126.892;2023-12-20T14:16:08;0.20;;;0.20;;
11638;SDS011;5875;35.940;126.892;2023-12-20T14:18:36;0.20;;;0.20;;
11638;SDS011;5875;35.940;126.892;2023-12-20T14:21:03;0.00;;;0.00;;
11638;SDS011;5875;35.940;126.892;2023-12-20T14:23:31;0.43;;;0.20;;
11638;SDS011;5875;35.940;126.892;2023-12-20T14:26:01;0.10;;;0.10;;
11638;SDS011;5875;35.940;126.892;2023-12-20T14:28:29;0.10;;;0.10;;
11638;SDS011;5875;35.940;126.892;2023-12-20T14:30:56;0.93;;;0.80;;
11638;SDS011;5875;35.940;126.892;2023-12-20T14:33:23;0.77;;;0.30;;
11638;SDS011;5875;35.940;126.892;2023-12-20T14:35:51;0.43;;;0.30;;
11638;SDS011;5875;35.940;126.892;2023-12-20T14:38:18;0.00;;;0.00;;
11638;SDS011;5875;35.940;126.892;2023-12-20T14:40:45;0.13;;;0.10;;
11638;SDS011;5875;35.940;126.892;2023-12-20T14:43:13;0.93;;;0.73;;
11638;SDS011;5875;35.940;126.892;2023-12-20T14:45:41;0.10;;;0.10;;
11638;SDS011;5875;35.940;126.892;2023-12-20T14:48:09;1.50;;;1.40;;